Time;durP1;ratioP1;P1;durP2;ratioP2;P2;SDS_P1;SDS_P2;PMS_P1;PMS_P2;Temp;Humidity;BMP_temperature;BMP_pressure;BME280_temperature;BME280_humidity;BME280_pressure;Samples;Min_cycle;Max_cycle;Signal;HPM_P1;HPM_P2
2021/12/04 00:01:56;;;;;;;9.30;7.78;;;4.60;74.70;;;;;;4977673;28;20966;-54
2021/12/04 00:04:27;;;;;;;12.48;9.20;;;4.60;74.50;;;;;;4977937;28;20110;-50
2021/12/04 00:06:53;;;;;;;13.48;9.38;;;4.60;74.50;;;;;;4983844;28;20057;-53
2021/12/04 00:09:21;;;;;;;12.13;9.57;;;4.50;74.50;;;;;;4995825;28;20026;-51
2021/12/04 00:12:02;;;;;;;10.30;8.43;;;4.50;74.50;;;;;;4986160;28;20046;-53
2021/12/04 00:14:33;;;;;;;10.05;8.57;;;4.50;74.50;;;;;;4984027;28;20031;-52
2021/12/04 00:16:59;;;;;;;11.82;9.35;;;4.40;74.50;;;;;;4972827;28;20501;-51
2021/12/04 00:19:25;;;;;;;11.45;8.93;;;4.40;74.60;;;;;;4974002;28;20044;-54
2021/12/04 00:21:52;;;;;;;10.23;8.45;;;4.40;74.60;;;;;;4983842;28;20061;-54
2021/12/04 00:24:18;;;;;;;11.30;9.60;;;4.40;74.50;;;;;;4989569;28;20030;-51
2021/12/04 00:26:45;;;;;;;10.68;8.48;;;4.40;74.40;;;;;;4978268;28;20031;-53
2021/12/04 00:29:11;;;;;;;11.15;9.25;;;4.30;74.30;;;;;;4987016;28;20367;-51
2021/12/04 00:31:40;;;;;;;10.93;8.80;;;4.30;74.40;;;;;;4978592;28;20422;-50
2021/12/04 00:34:06;;;;;;;13.00;9.60;;;4.30;74.30;;;;;;4976430;28;20087;-51
2021/12/04 00:50:15;;;;;;;10.93;9.23;;;4.20;74.50;;;;;;4980010;28;20146;-53
2021/12/04 00:52:40;;;;;;;13.73;10.75;;;4.20;74.40;;;;;;4976838;28;20110;-51
2021/12/04 00:55:07;;;;;;;13.68;11.07;;;4.20;74.40;;;;;;4975558;28;20031;-54
2021/12/04 00:57:33;;;;;;;13.32;10.55;;;4.30;74.40;;;;;;4993788;28;20037;-54
2021/12/04 00:59:59;;;;;;;13.07;10.90;;;4.30;74.30;;;;;;4983325;28;20026;-52
2021/12/04 01:02:25;;;;;;;12.00;9.73;;;4.40;74.20;;;;;;4974993;28;20042;-51
2021/12/04 01:04:51;;;;;;;13.07;10.45;;;4.40;74.10;;;;;;4982856;28;20033;-54
2021/12/04 01:07:20;;;;;;;13.18;10.60;;;4.40;73.90;;;;;;4979319;28;20049;-54
2021/12/04 01:09:46;;;;;;;13.27;10.63;;;4.50;73.90;;;;;;4981324;28;20031;-52
2021/12/04 01:12:13;;;;;;;13.70;10.45;;;4.50;73.60;;;;;;4983017;28;20462;-52
2021/12/04 01:14:39;;;;;;;12.57;10.20;;;4.50;73.70;;;;;;4988013;28;20038;-51
2021/12/04 01:17:05;;;;;;;14.02;10.85;;;4.50;73.30;;;;;;4974586;28;20033;-51
2021/12/04 01:19:30;;;;;;;13.90;10.43;;;4.40;73.20;;;;;;4971417;28;23382;-53
2021/12/04 01:21:57;;;;;;;12.05;10.18;;;4.40;73.30;;;;;;4973278;28;20447;-51
2021/12/04 01:24:23;;;;;;;13.65;10.45;;;4.30;73.20;;;;;;4968380;28;20035;-54
2021/12/04 01:26:50;;;;;;;12.32;10.35;;;4.20;73.40;;;;;;4961328;28;20023;-52
2021/12/04 01:29:16;;;;;;;13.95;11.02;;;4.20;73.70;;;;;;4975502;28;20034;-51
2021/12/04 01:31:42;;;;;;;13.88;10.15;;;4.20;73.80;;;;;;4973597;28;20562;-54
2021/12/04 01:34:08;;;;;;;13.77;10.30;;;4.10;73.70;;;;;;4971713;28;20122;-55
2021/12/04 01:36:35;;;;;;;15.95;11.98;;;4.10;73.50;;;;;;4972440;28;20118;-54
2021/12/04 01:39:01;;;;;;;15.02;10.35;;;4.10;73.50;;;;;;4973687;28;20030;-54
2021/12/04 01:41:26;;;;;;;15.05;10.68;;;4.10;73.50;;;;;;4973573;28;20046;-53
2021/12/04 01:43:52;;;;;;;14.35;10.20;;;4.00;73.60;;;;;;4973811;28;20463;-51
2021/12/04 01:46:18;;;;;;;13.05;10.32;;;4.00;73.60;;;;;;4985926;28;20097;-54
2021/12/04 01:48:44;;;;;;;14.93;11.20;;;4.00;73.60;;;;;;4976347;28;20041;-53
2021/12/04 01:51:10;;;;;;;13.40;10.68;;;4.00;73.50;;;;;;4968139;28;20027;-53
2021/12/04 01:53:36;;;;;;;14.45;10.95;;;4.00;73.50;;;;;;4973030;28;20501;-53
2021/12/04 01:56:03;;;;;;;12.55;10.70;;;4.00;73.30;;;;;;4972031;28;20027;-52
2021/12/04 01:58:29;;;;;;;14.18;11.07;;;3.90;73.40;;;;;;4971747;28;20175;-52
2021/12/04 02:00:56;;;;;;;13.82;10.85;;;3.90;73.30;;;;;;4971146;28;20043;-52
2021/12/04 02:03:22;;;;;;;13.05;9.98;;;3.90;73.40;;;;;;4971845;28;20035;-51
2021/12/04 02:05:49;;;;;;;12.82;10.65;;;3.90;73.40;;;;;;4971408;28;20065;-54
2021/12/04 02:08:18;;;;;;;14.50;11.20;;;3.90;73.30;;;;;;4960596;28;20046;-51
2021/12/04 02:10:46;;;;;;;13.60;10.45;;;3.90;73.30;;;;;;4974073;28;20042;-53
2021/12/04 02:13:11;;;;;;;14.73;10.60;;;3.90;73.40;;;;;;4973830;28;20038;-53
2021/12/04 02:15:37;;;;;;;13.93;10.43;;;3.90;73.40;;;;;;4974020;28;20490;-51
2021/12/04 02:18:06;;;;;;;11.93;10.13;;;3.90;73.30;;;;;;4974068;28;20030;-51
2021/12/04 02:20:34;;;;;;;12.85;10.82;;;3.80;73.20;;;;;;4969998;28;20382;-53
2021/12/04 02:23:01;;;;;;;14.30;11.15;;;3.80;73.20;;;;;;4993146;28;20046;-51
2021/12/04 02:25:27;;;;;;;14.70;10.10;;;3.80;73.20;;;;;;4987613;28;20035;-53
2021/12/04 02:27:53;;;;;;;15.43;10.70;;;3.80;73.20;;;;;;4973676;28;20486;-52
2021/12/04 02:30:23;;;;;;;13.95;10.77;;;3.70;73.00;;;;;;4972553;28;20042;-52
2021/12/04 02:32:49;;;;;;;13.50;10.75;;;3.60;73.00;;;;;;4973905;28;20034;-53
2021/12/04 02:35:16;;;;;;;12.43;10.45;;;3.60;73.00;;;;;;4973699;28;20051;-51
2021/12/04 02:37:42;;;;;;;13.00;10.30;;;3.60;73.10;;;;;;4972376;28;20378;-51
2021/12/04 02:40:15;;;;;;;12.70;10.18;;;3.60;73.20;;;;;;4972210;28;20027;-52
2021/12/04 02:42:41;;;;;;;12.57;10.85;;;3.60;73.20;;;;;;4973949;28;20039;-51
2021/12/04 02:45:09;;;;;;;11.95;9.93;;;3.60;73.00;;;;;;4973831;28;20387;-52
2021/12/04 02:47:35;;;;;;;12.55;9.52;;;3.50;73.00;;;;;;4972990;28;20049;-51
2021/12/04 02:50:05;;;;;;;12.63;10.70;;;3.50;73.10;;;;;;4973480;28;20481;-51
2021/12/04 02:52:31;;;;;;;14.35;11.55;;;3.50;73.00;;;;;;4974028;28;20026;-51
2021/12/04 02:54:57;;;;;;;12.90;10.43;;;3.50;73.00;;;;;;4975294;28;20098;-52
2021/12/04 02:57:23;;;;;;;12.73;10.63;;;3.50;73.00;;;;;;4992070;28;20386;-51
2021/12/04 02:59:50;;;;;;;14.30;11.18;;;3.50;72.90;;;;;;4988739;28;20035;-51
2021/12/04 03:02:22;;;;;;;16.20;11.80;;;3.60;73.00;;;;;;4970250;28;20052;-51
2021/12/04 03:05:00;;;;;;;14.48;11.68;;;3.60;72.90;;;;;;4972079;28;20545;-52
2021/12/04 03:07:26;;;;;;;16.83;12.32;;;3.70;72.80;;;;;;4973682;28;20046;-54
2021/12/04 03:09:53;;;;;;;18.80;12.75;;;3.80;72.70;;;;;;4973669;28;20378;-54
2021/12/04 03:12:25;;;;;;;16.38;12.63;;;3.80;72.40;;;;;;4973948;28;20026;-53
2021/12/04 03:14:51;;;;;;;16.02;12.27;;;3.90;72.20;;;;;;4994775;28;20038;-54
2021/12/04 03:17:20;;;;;;;16.90;11.48;;;3.90;72.10;;;;;;4996456;28;20056;-53
2021/12/04 03:19:46;;;;;;;12.57;10.60;;;4.00;71.80;;;;;;4977202;28;20378;-52
2021/12/04 03:22:14;;;;;;;13.90;11.07;;;4.00;71.60;;;;;;4977299;28;20534;-51
2021/12/04 03:24:42;;;;;;;13.98;11.35;;;4.00;71.30;;;;;;4966789;28;20024;-51
2021/12/04 03:27:08;;;;;;;15.85;11.52;;;4.00;71.30;;;;;;4974960;28;20069;-53
2021/12/04 03:29:41;;;;;;;13.93;10.93;;;4.00;71.20;;;;;;4974478;28;20050;-53
2021/12/04 03:32:25;;;;;;;12.68;10.52;;;4.00;71.10;;;;;;4996526;28;20034;-53
2021/12/04 03:40:39;;;;;;;13.70;10.45;;;4.00;70.90;;;;;;4976151;28;20077;-54
2021/12/04 03:43:07;;;;;;;14.00;10.75;;;4.00;70.80;;;;;;4976410;28;20039;-52
2021/12/04 03:45:36;;;;;;;13.25;10.52;;;4.00;71.20;;;;;;4976377;28;20062;-54
2021/12/04 03:48:13;;;;;;;13.90;10.52;;;4.00;70.90;;;;;;4975953;28;20034;-54
2021/12/04 03:50:39;;;;;;;17.05;12.00;;;4.00;71.30;;;;;;4976666;28;20383;-54
2021/12/04 03:53:05;;;;;;;14.98;11.98;;;4.00;70.90;;;;;;4974494;28;20027;-53
2021/12/04 03:55:31;;;;;;;15.57;11.65;;;4.00;70.90;;;;;;4976144;28;20019;-52
2021/12/04 03:57:57;;;;;;;17.17;11.68;;;4.00;70.80;;;;;;4976351;28;20034;-53
2021/12/04 04:00:28;;;;;;;15.82;12.68;;;4.00;70.80;;;;;;4976217;28;20031;-52
2021/12/04 04:02:54;;;;;;;17.25;12.05;;;4.00;71.00;;;;;;4976198;28;20066;-54
2021/12/04 04:05:20;;;;;;;13.43;10.85;;;4.00;70.70;;;;;;4982643;28;20398;-51
2021/12/04 04:07:46;;;;;;;16.10;11.63;;;3.90;70.70;;;;;;4995594;28;20033;-51
2021/12/04 04:10:12;;;;;;;17.08;12.75;;;3.90;70.70;;;;;;4975763;28;20038;-52
2021/12/04 04:12:38;;;;;;;15.25;12.20;;;3.90;70.80;;;;;;4975335;28;20118;-51
2021/12/04 04:15:04;;;;;;;16.02;12.23;;;3.80;71.20;;;;;;4975240;28;20110;-51
2021/12/04 04:17:32;;;;;;;16.73;11.93;;;3.80;71.00;;;;;;4975974;28;20022;-51
2021/12/04 04:19:58;;;;;;;15.82;12.00;;;3.80;71.00;;;;;;4975842;28;20027;-51
2021/12/04 04:22:23;;;;;;;14.73;11.00;;;3.80;71.00;;;;;;4981465;28;20030;-51
2021/12/04 04:24:49;;;;;;;17.02;12.25;;;3.80;70.90;;;;;;4981469;28;20039;-51
2021/12/04 04:27:14;;;;;;;15.35;11.65;;;3.80;70.80;;;;;;4975151;28;20027;-53
2021/12/04 04:29:40;;;;;;;13.50;11.02;;;3.90;70.80;;;;;;4973798;28;20026;-52
2021/12/04 04:32:06;;;;;;;15.25;11.77;;;3.90;70.70;;;;;;4974771;28;20069;-53
2021/12/04 04:34:35;;;;;;;15.15;10.70;;;3.90;70.70;;;;;;4975134;28;20047;-51
2021/12/04 05:14:39;;;;;;;14.50;10.63;;;3.90;70.20;;;;;;4974289;28;20054;-52
2021/12/04 05:17:26;;;;;;;16.38;12.18;;;3.80;70.10;;;;;;4974192;28;20037;-51
2021/12/04 05:19:53;;;;;;;15.10;10.73;;;3.80;70.10;;;;;;4972501;28;20041;-54
2021/12/04 05:22:19;;;;;;;15.98;11.50;;;3.80;70.00;;;;;;4974275;28;20102;-53
2021/12/04 05:24:45;;;;;;;15.38;11.60;;;3.90;70.00;;;;;;4974855;28;20027;-53
2021/12/04 05:27:11;;;;;;;15.90;12.25;;;3.90;69.90;;;;;;4974854;28;20042;-51
2021/12/04 05:29:38;;;;;;;15.05;11.32;;;3.90;69.80;;;;;;4974424;28;20037;-54
2021/12/04 05:32:05;;;;;;;14.65;12.15;;;3.90;69.80;;;;;;4974097;28;20030;-51
2021/12/04 05:34:31;;;;;;;18.90;12.07;;;3.90;69.80;;;;;;4973953;28;20058;-53
2021/12/04 05:36:58;;;;;;;14.70;11.18;;;3.90;69.70;;;;;;4968269;28;20027;-51
2021/12/04 05:39:23;;;;;;;15.30;11.13;;;3.90;69.70;;;;;;4974294;28;20023;-53
2021/12/04 05:41:50;;;;;;;14.70;11.15;;;3.90;69.80;;;;;;4976964;28;20046;-51
2021/12/04 05:44:18;;;;;;;15.57;11.38;;;3.90;69.70;;;;;;4988484;28;20031;-51
2021/12/04 05:46:52;;;;;;;16.80;11.90;;;3.90;69.80;;;;;;4974416;28;20093;-53
2021/12/04 05:49:25;;;;;;;14.73;11.75;;;3.90;69.90;;;;;;4974100;28;20031;-54
2021/12/04 05:56:59;;;;;;;15.13;11.35;;;3.80;70.00;;;;;;4974754;28;20076;-52
2021/12/04 05:59:25;;;;;;;14.70;11.38;;;3.80;70.10;;;;;;4974316;28;20038;-51
2021/12/04 06:01:51;;;;;;;14.80;12.23;;;3.80;70.10;;;;;;4974538;28;20031;-51
2021/12/04 06:04:16;;;;;;;15.30;11.35;;;3.80;69.90;;;;;;4974526;28;20363;-51
2021/12/04 06:06:45;;;;;;;15.77;11.73;;;3.80;69.80;;;;;;4973015;28;20027;-52
2021/12/04 06:09:11;;;;;;;14.95;11.38;;;3.80;70.10;;;;;;4973753;28;20031;-51
2021/12/04 06:11:36;;;;;;;15.60;11.55;;;3.80;69.90;;;;;;4968141;28;20034;-51
2021/12/04 06:14:03;;;;;;;16.70;12.52;;;3.90;69.80;;;;;;4972669;28;20054;-54
2021/12/04 06:16:30;;;;;;;15.20;11.75;;;3.90;69.80;;;;;;4973083;28;20026;-51
2021/12/04 06:18:58;;;;;;;14.45;11.25;;;3.90;69.80;;;;;;4974193;28;20037;-54
2021/12/04 06:24:07;;;;;;;15.75;11.95;;;3.90;69.80;;;;;;4974444;28;20086;-51
2021/12/04 06:26:35;;;;;;;15.70;12.02;;;3.90;70.00;;;;;;4972757;28;20031;-53
2021/12/04 06:29:01;;;;;;;15.98;11.50;;;3.90;70.00;;;;;;4974139;28;20037;-54
2021/12/04 06:31:27;;;;;;;16.25;12.10;;;3.90;70.10;;;;;;4972872;28;20542;-53
2021/12/04 06:33:53;;;;;;;17.15;12.93;;;3.90;70.10;;;;;;4973348;28;20102;-52
2021/12/04 06:36:21;;;;;;;17.25;13.15;;;4.00;70.10;;;;;;4972569;28;20019;-52
2021/12/04 06:38:47;;;;;;;18.92;12.55;;;4.00;69.90;;;;;;4973792;28;20031;-51
2021/12/04 06:41:14;;;;;;;15.25;12.43;;;4.10;70.10;;;;;;4971349;28;20467;-51
2021/12/04 06:43:46;;;;;;;16.08;12.90;;;4.10;70.00;;;;;;4972537;28;20049;-51
2021/12/04 06:46:12;;;;;;;15.55;12.15;;;4.10;69.80;;;;;;4962817;28;20038;-54
2021/12/04 06:54:18;;;;;;;14.68;11.63;;;4.20;69.70;;;;;;4963104;28;20486;-51
2021/12/04 06:56:45;;;;;;;15.47;12.13;;;4.20;69.80;;;;;;4977710;28;20459;-52
2021/12/04 06:59:14;;;;;;;18.30;11.77;;;4.20;69.80;;;;;;4977258;28;20768;-51
2021/12/04 07:01:41;;;;;;;16.15;12.20;;;4.30;69.60;;;;;;4963912;28;20089;-54
2021/12/04 07:04:07;;;;;;;16.45;12.70;;;4.30;69.60;;;;;;4969824;28;20026;-52
2021/12/04 07:06:34;;;;;;;16.23;12.23;;;4.30;69.50;;;;;;4983134;28;20034;-52
2021/12/04 07:09:00;;;;;;;18.35;12.48;;;4.30;69.40;;;;;;4984293;28;20035;-51
2021/12/04 07:11:27;;;;;;;18.52;13.15;;;4.30;69.40;;;;;;4974816;28;20077;-51
2021/12/04 07:13:53;;;;;;;19.58;13.77;;;4.30;69.40;;;;;;4976632;28;20046;-51
2021/12/04 07:16:21;;;;;;;20.80;14.93;;;4.30;69.20;;;;;;4976598;28;20105;-52
2021/12/04 07:18:47;;;;;;;20.30;14.63;;;4.30;69.30;;;;;;4976328;28;20060;-54
2021/12/04 07:21:12;;;;;;;22.10;15.20;;;4.30;69.40;;;;;;4977044;28;20031;-51
2021/12/04 07:23:39;;;;;;;22.77;16.48;;;4.30;69.50;;;;;;4990881;28;20041;-51
2021/12/04 07:26:06;;;;;;;22.35;17.27;;;4.30;69.60;;;;;;4983173;28;20035;-53
2021/12/04 07:28:32;;;;;;;19.75;14.40;;;4.30;69.50;;;;;;4975510;28;20554;-54
2021/12/04 07:30:57;;;;;;;22.35;15.23;;;4.30;69.40;;;;;;4976569;28;20383;-52
2021/12/04 07:33:23;;;;;;;21.85;16.35;;;4.30;69.40;;;;;;4976239;28;20023;-51
2021/12/04 07:35:50;;;;;;;19.50;14.23;;;4.40;69.60;;;;;;4976148;28;20069;-51
2021/12/04 07:38:16;;;;;;;20.13;15.27;;;4.30;69.50;;;;;;4968075;28;20020;-51
2021/12/04 07:40:43;;;;;;;23.35;15.43;;;4.40;69.50;;;;;;4962329;28;20096;-54
2021/12/04 07:43:10;;;;;;;18.10;14.30;;;4.30;69.50;;;;;;4975933;28;20463;-54
2021/12/04 07:45:35;;;;;;;18.65;14.60;;;4.40;69.60;;;;;;4981363;28;20393;-51
2021/12/04 07:48:02;;;;;;;21.00;15.45;;;4.30;69.50;;;;;;4995463;28;20038;-54
2021/12/04 07:50:28;;;;;;;20.33;15.82;;;4.30;69.60;;;;;;4979472;28;20031;-56
2021/12/04 07:52:55;;;;;;;19.35;14.90;;;4.30;69.60;;;;;;4975781;28;20042;-54
2021/12/04 07:55:21;;;;;;;19.48;14.55;;;4.30;69.60;;;;;;4976230;28;20081;-52
2021/12/04 07:57:47;;;;;;;20.08;15.30;;;4.30;69.70;;;;;;4974443;28;20031;-52
2021/12/04 08:00:15;;;;;;;20.55;15.52;;;4.30;69.80;;;;;;4971818;28;20050;-53
2021/12/04 08:02:41;;;;;;;20.80;15.23;;;4.30;69.90;;;;;;4977091;28;20034;-51
2021/12/04 08:05:09;;;;;;;20.35;15.30;;;4.30;69.80;;;;;;4989919;28;20035;-54
2021/12/04 08:07:35;;;;;;;19.98;15.48;;;4.30;69.70;;;;;;4972521;28;20497;-54
2021/12/04 08:10:01;;;;;;;20.20;15.45;;;4.40;69.80;;;;;;4975569;28;20030;-54
2021/12/04 08:12:27;;;;;;;22.13;15.23;;;4.40;69.80;;;;;;4974082;28;20486;-54
2021/12/04 08:14:53;;;;;;;18.63;13.77;;;4.40;69.70;;;;;;4972823;28;20023;-54
2021/12/04 08:17:20;;;;;;;20.05;13.68;;;4.40;69.70;;;;;;4968927;28;20034;-51
2021/12/04 08:19:46;;;;;;;19.52;14.77;;;4.40;69.70;;;;;;4976374;28;20077;-51
2021/12/04 08:22:11;;;;;;;19.15;13.93;;;4.40;69.70;;;;;;4995684;28;20058;-51
2021/12/04 08:24:37;;;;;;;18.85;14.48;;;4.30;69.60;;;;;;4987942;28;20034;-54
2021/12/04 08:27:03;;;;;;;20.77;13.52;;;4.30;69.70;;;;;;4970225;28;20101;-52
2021/12/04 08:29:30;;;;;;;20.98;14.85;;;4.40;69.80;;;;;;4974104;28;20478;-54
2021/12/04 08:31:55;;;;;;;27.48;17.60;;;4.40;69.70;;;;;;4973223;28;20023;-52
2021/12/04 08:34:23;;;;;;;24.67;17.30;;;4.30;69.70;;;;;;4974033;28;20051;-51
2021/12/04 08:36:51;;;;;;;24.10;17.55;;;4.30;69.80;;;;;;4975283;28;20027;-51
2021/12/04 08:39:16;;;;;;;22.13;16.27;;;4.40;70.00;;;;;;4983189;28;20376;-53
2021/12/04 08:41:42;;;;;;;21.02;15.88;;;4.40;70.00;;;;;;4972214;28;20106;-54
2021/12/04 08:44:08;;;;;;;21.85;15.10;;;4.40;70.00;;;;;;4975342;28;20031;-51
2021/12/04 08:46:35;;;;;;;19.05;15.18;;;4.40;70.00;;;;;;4983634;28;20033;-53
2021/12/04 08:49:01;;;;;;;21.73;15.63;;;4.50;70.10;;;;;;4991238;28;20030;-52
2021/12/04 08:51:29;;;;;;;19.63;14.70;;;4.50;70.10;;;;;;4976876;28;20086;-52
2021/12/04 08:53:55;;;;;;;18.23;14.80;;;4.50;70.10;;;;;;4986915;28;20370;-52
2021/12/04 08:56:21;;;;;;;19.77;15.43;;;4.60;70.10;;;;;;4985151;28;20084;-52
2021/12/04 08:58:46;;;;;;;20.13;15.68;;;4.50;70.00;;;;;;4974566;28;20378;-52
2021/12/04 09:01:22;;;;;;;23.15;17.25;;;4.60;70.10;;;;;;4973646;28;20027;-53
2021/12/04 09:03:48;;;;;;;20.50;15.60;;;4.60;70.20;;;;;;4972810;28;20106;-52
2021/12/04 09:06:16;;;;;;;22.77;16.38;;;4.60;70.00;;;;;;4973395;28;20041;-51
2021/12/04 09:08:42;;;;;;;23.05;16.80;;;4.60;70.00;;;;;;4971385;28;20035;-51
2021/12/04 09:11:14;;;;;;;21.65;16.30;;;4.70;70.10;;;;;;4972459;28;20454;-51
2021/12/04 09:13:40;;;;;;;20.95;17.65;;;4.70;70.20;;;;;;4972465;28;20027;-52
2021/12/04 09:16:07;;;;;;;22.23;16.90;;;4.70;70.10;;;;;;4973980;28;20030;-52
2021/12/04 09:18:34;;;;;;;22.55;16.65;;;4.80;70.20;;;;;;4974867;28;20145;-51
2021/12/04 09:21:00;;;;;;;19.52;15.65;;;4.80;70.00;;;;;;4977948;28;20462;-53
2021/12/04 09:23:32;;;;;;;20.40;15.23;;;4.80;69.90;;;;;;4972932;28;20046;-53
2021/12/04 09:26:00;;;;;;;19.70;15.60;;;4.90;70.00;;;;;;4975689;28;20039;-51
2021/12/04 10:00:54;;;;;;;15.18;12.05;;;5.40;68.60;;;;;;4972411;28;20042;-51
2021/12/04 10:03:39;;;;;;;17.25;12.80;;;5.40;68.70;;;;;;4971257;28;20033;-53
2021/12/04 10:32:36;;;;;;;15.68;11.68;;;5.90;67.90;;;;;;4978514;28;20029;-51
2021/12/04 10:35:15;;;;;;;15.40;11.75;;;5.90;67.80;;;;;;4978347;28;20053;-53
2021/12/04 10:38:00;;;;;;;14.57;11.45;;;5.90;67.70;;;;;;4977442;28;20176;-54
2021/12/04 10:40:43;;;;;;;15.48;11.52;;;6.00;67.60;;;;;;4974719;28;20053;-54
2021/12/04 10:43:14;;;;;;;18.73;13.75;;;6.00;67.70;;;;;;4977012;28;20629;-54
2021/12/04 10:45:46;;;;;;;14.77;11.18;;;6.00;67.50;;;;;;4982880;28;20031;-51
2021/12/04 10:48:17;;;;;;;16.00;12.48;;;6.00;67.40;;;;;;4977222;28;20035;-53
2021/12/04 10:50:55;;;;;;;15.32;12.20;;;5.90;67.50;;;;;;4982602;28;20471;-54
2021/12/04 10:53:27;;;;;;;17.35;12.93;;;5.90;67.50;;;;;;4978159;28;20042;-53
2021/12/04 10:56:10;;;;;;;15.77;12.70;;;5.80;67.80;;;;;;4970777;28;20027;-52
2021/12/04 11:04:05;;;;;;;15.48;12.30;;;5.70;67.90;;;;;;4991402;28;20090;-53
2021/12/04 11:26:05;;;;;;;19.25;14.43;;;5.60;68.20;;;;;;4976962;28;20077;-51
2021/12/04 11:41:37;;;;;;;21.40;16.00;;;5.50;68.50;;;;;;4976660;28;20122;-52
2021/12/04 11:44:10;;;;;;;19.95;15.30;;;5.50;68.80;;;;;;4976749;28;20031;-54
2021/12/04 11:46:45;;;;;;;16.65;13.63;;;5.60;68.80;;;;;;4974358;28;20035;-51
2021/12/04 11:49:24;;;;;;;16.02;13.60;;;5.60;68.90;;;;;;4976174;28;20093;-51
2021/12/04 11:51:57;;;;;;;17.35;13.40;;;5.60;68.80;;;;;;4975095;28;20057;-51
2021/12/04 11:54:29;;;;;;;16.98;13.23;;;5.60;68.80;;;;;;4984437;28;20522;-51
2021/12/04 11:57:05;;;;;;;20.25;13.90;;;5.60;68.90;;;;;;4987370;28;20070;-51
2021/12/04 11:59:34;;;;;;;16.75;12.48;;;5.60;69.70;;;;;;4976510;28;20019;-51
2021/12/04 12:02:01;;;;;;;19.35;14.13;;;5.50;69.10;;;;;;4974192;28;20386;-51
2021/12/04 12:04:39;;;;;;;17.73;13.43;;;5.50;69.30;;;;;;4974499;28;20023;-52
2021/12/04 12:07:18;;;;;;;16.30;12.57;;;5.50;69.20;;;;;;4975176;28;20073;-54
2021/12/04 12:09:46;;;;;;;17.70;14.20;;;5.50;69.20;;;;;;4977166;28;20038;-53
2021/12/04 12:12:14;;;;;;;18.52;14.30;;;5.50;69.20;;;;;;4994283;28;20380;-54
2021/12/04 12:14:54;;;;;;;19.60;14.98;;;5.40;69.30;;;;;;4984671;28;20098;-51
2021/12/04 12:17:39;;;;;;;18.48;14.27;;;5.50;69.40;;;;;;4977212;28;20039;-52
2021/12/04 12:20:10;;;;;;;18.58;13.27;;;5.40;69.40;;;;;;4975236;28;20030;-53
2021/12/04 12:25:25;;;;;;;17.52;13.80;;;5.40;69.50;;;;;;4970985;28;20041;-53
2021/12/04 12:36:12;;;;;;;17.92;13.48;;;5.50;69.40;;;;;;4972266;28;20038;-52
2021/12/04 12:38:44;;;;;;;16.90;13.13;;;5.60;69.30;;;;;;4979533;28;20434;-51
2021/12/04 12:41:29;;;;;;;20.75;15.38;;;5.60;69.80;;;;;;4970252;28;20038;-51
2021/12/04 12:44:10;;;;;;;20.00;14.70;;;5.60;69.10;;;;;;4977154;28;20041;-51
2021/12/04 12:46:51;;;;;;;19.83;15.43;;;5.60;69.00;;;;;;4973599;28;20382;-51
2021/12/04 12:49:38;;;;;;;16.77;14.13;;;5.60;69.00;;;;;;4975984;28;20035;-54
2021/12/04 12:52:23;;;;;;;20.02;14.82;;;5.60;69.00;;;;;;4972105;28;20047;-53
2021/12/04 12:55:06;;;;;;;20.17;15.70;;;5.60;69.00;;;;;;4977329;28;20501;-51
2021/12/04 12:57:39;;;;;;;18.77;14.15;;;5.60;68.90;;;;;;4970292;28;20034;-52
2021/12/04 13:14:22;;;;;;;22.55;15.48;;;5.70;68.80;;;;;;4976353;28;20030;-51
2021/12/04 13:17:03;;;;;;;22.35;15.82;;;5.60;68.80;;;;;;4970312;28;20589;-53
2021/12/04 13:19:30;;;;;;;20.27;16.33;;;5.60;68.80;;;;;;4978508;28;20031;-53
2021/12/04 13:22:00;;;;;;;20.42;16.17;;;5.60;68.80;;;;;;4976081;28;20055;-52
2021/12/04 13:24:28;;;;;;;26.50;16.63;;;5.60;68.80;;;;;;4980698;28;20023;-52
2021/12/04 13:26:56;;;;;;;18.77;14.82;;;5.60;68.80;;;;;;4977484;28;20039;-53
2021/12/04 13:29:24;;;;;;;20.45;14.95;;;5.60;68.90;;;;;;4973766;28;20395;-54
2021/12/04 13:31:55;;;;;;;20.65;15.63;;;5.60;69.00;;;;;;4974649;28;20135;-52
2021/12/04 13:34:28;;;;;;;25.85;16.40;;;5.60;68.90;;;;;;4976130;28;20039;-53
2021/12/04 13:36:55;;;;;;;24.67;18.40;;;5.60;68.90;;;;;;4974718;28;20048;-54
2021/12/04 13:39:21;;;;;;;23.17;18.40;;;5.50;68.90;;;;;;4979384;28;20049;-51
2021/12/04 13:41:49;;;;;;;25.08;17.33;;;5.50;68.90;;;;;;4984216;28;20085;-54
2021/12/04 13:44:17;;;;;;;21.70;16.17;;;5.40;68.90;;;;;;4974617;28;20077;-53
2021/12/04 13:46:51;;;;;;;24.08;16.15;;;5.30;69.00;;;;;;4989592;28;20109;-53
2021/12/04 13:49:26;;;;;;;24.13;17.20;;;5.20;69.30;;;;;;4961415;28;20031;-51
2021/12/04 13:51:54;;;;;;;22.85;17.08;;;5.10;69.50;;;;;;4977791;28;20023;-52
2021/12/04 13:54:21;;;;;;;24.20;17.35;;;5.10;69.70;;;;;;4971837;28;20023;-54
2021/12/04 13:56:47;;;;;;;24.38;18.27;;;5.00;69.80;;;;;;4970074;28;20029;-53
2021/12/04 13:59:14;;;;;;;21.92;17.73;;;4.90;70.00;;;;;;4970900;28;20089;-52
2021/12/04 14:01:42;;;;;;;23.60;17.70;;;4.90;70.20;;;;;;4972167;28;20391;-54
2021/12/04 14:04:15;;;;;;;24.27;17.27;;;4.80;70.60;;;;;;4972707;28;20038;-54
2021/12/04 14:06:51;;;;;;;22.38;17.75;;;4.70;70.70;;;;;;4977478;28;20043;-52
2021/12/04 14:09:17;;;;;;;27.75;18.52;;;4.70;70.90;;;;;;4965892;28;20034;-54
2021/12/04 14:11:43;;;;;;;26.00;20.42;;;4.70;71.10;;;;;;4966041;28;20023;-53
2021/12/04 14:14:13;;;;;;;25.00;18.60;;;4.60;71.10;;;;;;4960800;28;20036;-54
2021/12/04 14:16:41;;;;;;;23.38;18.08;;;4.60;71.30;;;;;;4963314;28;20030;-53
2021/12/04 14:19:18;;;;;;;25.35;19.17;;;4.60;71.60;;;;;;4966162;28;20045;-52
2021/12/04 14:21:57;;;;;;;25.90;17.13;;;4.50;71.70;;;;;;4963472;28;21592;-51
2021/12/04 14:24:42;;;;;;;25.88;18.35;;;4.60;72.10;;;;;;4964630;28;20038;-52
2021/12/04 14:27:10;;;;;;;25.35;19.10;;;4.50;72.00;;;;;;4971908;28;20030;-54
2021/12/04 14:29:39;;;;;;;27.35;20.42;;;4.50;72.20;;;;;;4969383;28;20033;-53
2021/12/04 14:32:05;;;;;;;24.90;18.80;;;4.50;72.40;;;;;;4967903;28;20034;-55
2021/12/04 14:34:32;;;;;;;30.15;20.63;;;4.50;72.50;;;;;;4968669;28;20077;-52
2021/12/04 14:37:15;;;;;;;29.75;21.63;;;4.50;72.60;;;;;;4969050;28;20084;-51
2021/12/04 14:39:43;;;;;;;31.13;20.83;;;4.50;72.70;;;;;;4969400;28;20049;-53
2021/12/04 14:42:22;;;;;;;27.23;19.95;;;4.50;72.80;;;;;;4970842;28;20050;-54
2021/12/04 14:45:04;;;;;;;27.83;21.55;;;4.50;73.00;;;;;;4965766;28;20031;-54
2021/12/04 14:47:31;;;;;;;;;;;4.50;73.20;;;;;;4970882;28;20042;-54
2021/12/04 14:50:00;;;;;;;25.38;18.55;;;4.50;73.00;;;;;;4972176;28;19921;-51
2021/12/04 14:52:28;;;;;;;29.50;20.73;;;4.50;73.00;;;;;;4969141;28;20066;-53
2021/12/04 14:54:55;;;;;;;28.83;20.67;;;4.60;73.00;;;;;;4971429;28;20459;-54
2021/12/04 14:57:24;;;;;;;30.02;20.45;;;4.60;73.20;;;;;;4968993;28;20034;-54
2021/12/04 15:00:04;;;;;;;28.83;20.92;;;4.60;73.10;;;;;;4969275;28;20778;-54
2021/12/04 15:02:30;;;;;;;28.52;20.73;;;4.70;73.20;;;;;;4966494;28;20345;-54
2021/12/04 15:04:56;;;;;;;29.60;20.98;;;4.70;73.10;;;;;;4973191;28;21571;-52
2021/12/04 15:07:26;;;;;;;28.40;21.55;;;4.70;73.20;;;;;;4971103;28;20035;-52
2021/12/04 15:09:51;;;;;;;31.35;21.27;;;4.80;73.00;;;;;;4971387;28;20030;-51
2021/12/04 15:12:31;;;;;;;27.15;20.00;;;4.80;73.60;;;;;;4970928;28;20023;-53
2021/12/04 15:15:08;;;;;;;28.90;21.20;;;4.80;72.80;;;;;;4972357;28;20034;-51
2021/12/04 15:17:35;;;;;;;27.33;18.90;;;4.80;72.70;;;;;;4969578;28;20030;-51
2021/12/04 15:20:11;;;;;;;26.63;20.55;;;4.80;72.70;;;;;;4974856;28;20117;-54
2021/12/04 15:22:43;;;;;;;26.60;21.80;;;4.80;72.50;;;;;;4976959;28;20054;-53
2021/12/04 15:25:19;;;;;;;29.23;21.20;;;4.80;72.40;;;;;;4973560;28;20097;-51
2021/12/04 15:27:46;;;;;;;30.17;21.85;;;4.80;72.30;;;;;;4973719;28;20082;-53
2021/12/04 15:30:15;;;;;;;27.48;21.45;;;4.80;72.30;;;;;;4968105;28;20045;-53
2021/12/04 15:32:42;;;;;;;26.92;19.65;;;4.80;72.30;;;;;;4979182;28;20043;-51
2021/12/04 15:35:36;;;;;;;31.95;23.15;;;4.80;72.10;;;;;;4975677;28;20043;-53
2021/12/04 15:38:08;;;;;;;29.58;20.98;;;4.80;72.10;;;;;;4968067;28;20117;-54
2021/12/04 15:40:56;;;;;;;30.85;22.73;;;4.80;72.30;;;;;;4979659;28;20042;-55
2021/12/04 15:46:35;;;;;;;29.60;21.92;;;4.80;72.10;;;;;;4961654;28;20485;-54
2021/12/04 15:54:16;;;;;;;31.53;24.40;;;4.80;71.80;;;;;;4966296;28;20107;-53
2021/12/04 15:56:49;;;;;;;33.30;24.45;;;4.70;71.70;;;;;;4965592;28;20034;-54
2021/12/04 15:59:15;;;;;;;33.17;23.88;;;4.70;71.80;;;;;;4969138;28;20482;-54
2021/12/04 16:01:41;;;;;;;36.42;26.50;;;4.70;71.80;;;;;;4964438;28;20478;-54
2021/12/04 16:04:36;;;;;;;35.85;26.05;;;4.70;71.70;;;;;;4968265;28;20046;-52
2021/12/04 16:07:03;;;;;;;29.27;22.85;;;4.70;71.70;;;;;;4967946;28;20042;-54
2021/12/04 16:09:33;;;;;;;35.50;25.38;;;4.70;71.60;;;;;;4962583;28;20031;-52